Terminal Aerodrome Forecast
Issued by NWS

Home | Current Version | Previous Version | Text Only | Print | Product List | Glossary On
Versions: 1 2 3 4 5 6 7 8 9 10 11 12 13 14 15 16 17 18 19 20 21 22 23 24 25 26
000
FTUS43 KDLH 200355 AAB
TAFHIB
TAF AMD
KHIB 200355Z 2004/2024 03010KT 6SM -SN OVC045
      TEMPO 2005/2008 3SM -SN BKN025 OVC050
     FM200800 03010KT 2SM -SN OVC025
     FM201100 03008KT 1SM -SN SCT010 OVC025
     FM201700 34007KT 5SM -SN OVC018
     FM202000 21008KT P6SM -SN BKN015=

USA.gov is the U.S. government's official web portal to all federal, state and local government web resources and services.